createdAt,value
2022-10-05T00:00:23.180Z,84.67
2022-10-05T00:02:52.361Z,84.68
2022-10-05T00:05:29.975Z,84.24
2022-10-05T00:08:01.655Z,84.06
2022-10-05T00:10:29.307Z,83.87
2022-10-05T00:12:55.981Z,83.89
2022-10-05T00:15:23.524Z,84.00
2022-10-05T00:17:50.159Z,85.13
2022-10-05T00:20:23.547Z,84.56
2022-10-05T00:23:00.962Z,84.55
2022-10-05T00:25:27.584Z,84.27
2022-10-05T00:28:00.252Z,84.43
2022-10-05T00:30:32.220Z,83.99
2022-10-05T00:32:59.796Z,84.77
2022-10-05T00:35:29.271Z,84.94
2022-10-05T00:37:56.305Z,85.57
2022-10-05T00:40:49.990Z,84.71
2022-10-05T00:43:36.859Z,84.77
2022-10-05T00:46:13.147Z,84.55
2022-10-05T00:49:18.845Z,84.97
2022-10-05T00:51:54.425Z,84.87
2022-10-05T00:54:26.857Z,83.98
2022-10-05T00:57:29.940Z,84.78
2022-10-05T01:00:17.858Z,85.24
2022-10-05T01:03:32.038Z,84.61
2022-10-05T01:06:36.338Z,84.96
2022-10-05T01:09:13.874Z,85.75
2022-10-05T01:11:54.665Z,86.31
2022-10-05T01:14:46.441Z,85.12
2022-10-05T01:17:20.480Z,84.95
2022-10-05T01:20:27.119Z,85.60
2022-10-05T01:22:53.678Z,85.44
2022-10-05T01:25:36.279Z,86.41
2022-10-05T01:28:10.416Z,86.14
2022-10-05T01:30:51.654Z,86.70
2022-10-05T01:33:45.666Z,86.66
2022-10-05T01:36:27.949Z,86.04
2022-10-05T01:39:37.057Z,86.99
2022-10-05T01:42:15.643Z,86.01
2022-10-05T01:45:00.524Z,85.51
2022-10-05T01:47:44.620Z,85.82
2022-10-05T01:50:40.996Z,85.95
2022-10-05T01:53:13.286Z,85.49
2022-10-05T01:56:01.333Z,85.58
2022-10-05T01:58:43.202Z,85.35
2022-10-05T02:01:57.062Z,85.67
2022-10-05T02:05:04.162Z,85.91
2022-10-05T02:07:43.761Z,86.03
2022-10-05T02:10:25.508Z,86.91
2022-10-05T02:12:59.705Z,86.25
2022-10-05T02:15:43.064Z,86.51
2022-10-05T02:18:16.106Z,86.01
2022-10-05T02:20:45.570Z,86.74
2022-10-05T02:23:23.898Z,85.63
2022-10-05T02:25:52.799Z,85.72
2022-10-05T02:28:36.756Z,86.53
2022-10-05T02:31:09.422Z,85.98
2022-10-05T02:33:36.770Z,85.89
2022-10-05T02:36:33.833Z,85.88
2022-10-05T02:39:06.659Z,86.43
2022-10-05T02:41:41.547Z,86.79
2022-10-05T02:44:14.945Z,86.79
2022-10-05T02:46:56.162Z,85.55
2022-10-05T02:49:44.999Z,85.53
2022-10-05T02:52:37.418Z,85.63
2022-10-05T02:55:18.281Z,86.22
2022-10-05T02:57:54.489Z,87.27
2022-10-05T03:00:24.165Z,86.89
2022-10-05T03:03:14.076Z,86.48
2022-10-05T03:06:13.734Z,85.81
2022-10-05T03:08:47.037Z,86.29
2022-10-05T03:11:35.535Z,85.55
2022-10-05T03:14:18.974Z,86.16
2022-10-05T03:16:46.179Z,86.52
2022-10-05T03:19:42.148Z,86.23
2022-10-05T03:22:14.378Z,86.23
2022-10-05T03:24:48.067Z,86.25
2022-10-05T03:27:15.010Z,86.98
2022-10-05T03:29:57.446Z,87.19
2022-10-05T03:32:53.491Z,86.83
2022-10-05T03:35:41.255Z,86.91
2022-10-05T03:38:38.751Z,87.45
2022-10-05T03:41:20.156Z,87.03
2022-10-05T03:44:02.070Z,87.51
2022-10-05T03:46:59.632Z,86.87
2022-10-05T03:49:58.678Z,87.04
2022-10-05T03:52:42.748Z,87.75
2022-10-05T03:55:35.082Z,87.73
2022-10-05T03:58:09.563Z,87.86
2022-10-05T04:00:38.145Z,87.41
2022-10-05T04:03:16.790Z,87.96
2022-10-05T04:05:51.996Z,87.45
2022-10-05T04:08:32.584Z,86.88
2022-10-05T04:11:04.800Z,86.93
2022-10-05T04:13:47.887Z,87.84
2022-10-05T04:16:20.425Z,87.66
2022-10-05T04:19:15.921Z,87.69
2022-10-05T04:22:25.642Z,87.39
2022-10-05T04:25:10.922Z,87.93
2022-10-05T04:27:47.529Z,87.59
2022-10-05T04:30:22.247Z,87.34
2022-10-05T04:32:59.200Z,87.43
2022-10-05T04:36:10.828Z,88.38
2022-10-05T04:38:50.905Z,87.85
2022-10-05T04:41:43.638Z,87.48
2022-10-05T04:44:13.350Z,87.91
2022-10-05T04:47:01.273Z,88.21
2022-10-05T04:49:48.839Z,88.08
2022-10-05T04:52:37.226Z,87.83
2022-10-05T04:55:41.792Z,87.77
2022-10-05T04:58:29.675Z,87.24
2022-10-05T05:01:28.591Z,88.18
2022-10-05T05:04:29.807Z,87.87
2022-10-05T05:07:15.296Z,88.10
2022-10-05T05:10:06.082Z,87.85
2022-10-05T05:12:48.256Z,88.19
2022-10-05T05:15:26.890Z,87.60
2022-10-05T05:18:02.722Z,87.60
2022-10-05T05:20:51.320Z,87.16
2022-10-05T05:23:31.899Z,88.35
2022-10-05T05:26:20.182Z,88.53
2022-10-05T05:29:13.039Z,88.55
2022-10-05T05:32:18.822Z,88.03
2022-10-05T05:35:13.247Z,89.00
2022-10-05T05:38:04.387Z,88.28
2022-10-05T05:40:48.700Z,87.80
2022-10-05T05:43:28.442Z,87.97
2022-10-05T05:46:00.651Z,88.80
2022-10-05T05:48:38.413Z,87.94
2022-10-05T05:51:17.065Z,87.14
2022-10-05T05:53:46.810Z,86.73
2022-10-05T05:56:17.569Z,86.36
2022-10-05T05:58:56.744Z,86.39
2022-10-05T06:01:56.428Z,85.83
2022-10-05T06:04:41.353Z,85.05
2022-10-05T06:07:16.307Z,85.01
2022-10-05T06:10:27.435Z,84.50
2022-10-05T06:13:20.514Z,84.17
2022-10-05T06:16:20.704Z,84.73
2022-10-05T06:18:54.850Z,85.27
2022-10-05T06:21:28.846Z,85.27
2022-10-05T06:24:15.557Z,85.95
2022-10-05T06:27:07.470Z,85.09
2022-10-05T06:30:08.637Z,86.41
2022-10-05T06:32:49.969Z,85.94
2022-10-05T06:35:48.184Z,86.20
2022-10-05T06:38:23.497Z,85.74
2022-10-05T06:41:19.545Z,85.94
2022-10-05T06:44:04.138Z,84.33
2022-10-05T06:47:14.697Z,84.58
2022-10-05T06:50:15.522Z,85.00
2022-10-05T06:53:31.140Z,85.51
2022-10-05T06:56:20.043Z,84.97
2022-10-05T06:59:00.514Z,85.32
2022-10-05T07:01:56.032Z,85.28
2022-10-05T07:04:59.935Z,87.02
2022-10-05T07:07:58.202Z,87.11
2022-10-05T07:10:33.886Z,87.11
2022-10-05T07:13:40.078Z,86.33
2022-10-05T07:16:32.718Z,85.58
2022-10-05T07:19:18.497Z,85.83
2022-10-05T07:22:09.039Z,85.85
2022-10-05T07:24:44.687Z,86.56
2022-10-05T07:27:21.097Z,87.24
2022-10-05T07:30:10.167Z,86.93
2022-10-05T07:33:09.891Z,86.83
2022-10-05T07:35:55.370Z,87.12
2022-10-05T07:38:33.369Z,86.82
2022-10-05T07:41:14.545Z,86.86
2022-10-05T07:44:11.596Z,86.55
2022-10-05T07:46:51.244Z,85.73
2022-10-05T07:49:40.947Z,85.56
2022-10-05T07:52:34.693Z,86.31
2022-10-05T07:55:20.525Z,83.81
2022-10-05T07:58:20.213Z,84.11
2022-10-05T08:01:05.871Z,83.96
2022-10-05T08:03:44.616Z,83.65
2022-10-05T08:06:28.955Z,83.75
2022-10-05T08:09:31.251Z,82.68
2022-10-05T08:12:09.432Z,80.82
2022-10-05T08:14:52.843Z,80.38
2022-10-05T08:17:44.807Z,81.09
2022-10-05T08:20:17.489Z,81.36
2022-10-05T08:22:54.351Z,80.70
2022-10-05T08:25:29.153Z,81.01
2022-10-05T08:28:20.256Z,78.41
2022-10-05T08:31:01.000Z,78.31
2022-10-05T08:33:36.235Z,78.90
2022-10-05T08:36:12.377Z,78.70
2022-10-05T08:38:40.029Z,78.89
2022-10-05T08:41:32.208Z,76.99
2022-10-05T08:44:33.469Z,75.74
2022-10-05T08:47:06.158Z,76.86
2022-10-05T08:50:09.931Z,76.77
2022-10-05T08:52:46.611Z,77.66
2022-10-05T08:55:20.142Z,78.24
2022-10-05T08:57:53.013Z,77.91
2022-10-05T09:00:21.395Z,78.74
2022-10-05T09:03:35.261Z,79.53
2022-10-05T09:06:26.729Z,78.55
2022-10-05T09:09:25.116Z,80.27
2022-10-05T09:12:06.925Z,80.57
2022-10-05T09:15:01.495Z,78.18
2022-10-05T09:18:03.077Z,79.48
2022-10-05T09:20:41.446Z,78.60
2022-10-05T09:23:29.863Z,78.48
2022-10-05T09:26:07.561Z,78.28
2022-10-05T09:28:46.203Z,77.87
2022-10-05T09:31:27.294Z,77.46
2022-10-05T09:34:12.630Z,79.54
2022-10-05T09:36:59.100Z,78.94
2022-10-05T09:39:28.603Z,79.39
2022-10-05T09:42:16.884Z,77.62
2022-10-05T09:45:02.005Z,78.76
2022-10-05T09:47:34.607Z,78.47
2022-10-05T09:50:22.845Z,78.69
2022-10-05T09:52:55.735Z,78.71
2022-10-05T09:55:40.379Z,77.84
2022-10-05T09:59:23.926Z,77.13
2022-10-05T10:02:20.005Z,77.12
2022-10-05T10:05:05.583Z,77.75
2022-10-05T10:08:22.585Z,76.88
2022-10-05T10:11:31.276Z,76.85
2022-10-05T10:14:10.262Z,77.05
2022-10-05T10:16:55.868Z,76.64
2022-10-05T10:19:43.531Z,76.56
2022-10-05T10:22:27.722Z,75.83
2022-10-05T10:25:37.209Z,74.46
2022-10-05T10:28:18.436Z,73.84
2022-10-05T10:31:10.150Z,71.51
2022-10-05T10:34:07.006Z,72.72
2022-10-05T10:37:03.474Z,70.03
2022-10-05T10:40:04.367Z,71.13
2022-10-05T10:42:34.040Z,72.08
2022-10-05T10:45:19.285Z,73.34
2022-10-05T10:48:11.489Z,72.52
2022-10-05T10:51:18.353Z,74.93
2022-10-05T10:54:07.659Z,73.25
2022-10-05T10:56:56.137Z,75.13
2022-10-05T10:59:31.837Z,75.10
2022-10-05T11:02:20.124Z,74.50
2022-10-05T11:04:53.778Z,74.04
2022-10-05T11:07:23.280Z,75.06
2022-10-05T11:10:27.486Z,75.40
2022-10-05T11:13:18.625Z,74.88
2022-10-05T11:18:47.468Z,75.32
2022-10-05T11:21:22.921Z,74.73
2022-10-05T11:24:07.608Z,75.03
2022-10-05T11:26:43.024Z,74.77
2022-10-05T11:29:21.004Z,74.79
2022-10-05T11:32:03.062Z,75.57
2022-10-05T11:35:18.682Z,73.89
2022-10-05T11:38:02.389Z,73.95
2022-10-05T11:40:47.694Z,74.22
2022-10-05T11:43:36.766Z,73.63
2022-10-05T11:46:43.333Z,73.44
2022-10-05T11:49:25.764Z,73.58
2022-10-05T11:51:54.985Z,73.65
2022-10-05T11:54:28.779Z,72.45
2022-10-05T11:57:17.640Z,72.83
2022-10-05T11:59:58.254Z,72.21
2022-10-05T12:02:33.971Z,71.96
2022-10-05T12:05:11.199Z,74.07
2022-10-05T12:07:52.043Z,74.10
2022-10-05T12:10:44.740Z,71.90
2022-10-05T12:13:25.457Z,72.15
2022-10-05T12:16:01.437Z,72.48
2022-10-05T12:18:31.105Z,72.40
2022-10-05T12:21:03.672Z,72.58
2022-10-05T12:23:54.764Z,72.38
2022-10-05T12:26:36.786Z,72.48
2022-10-05T12:29:15.923Z,71.88
2022-10-05T12:31:54.496Z,72.63
2022-10-05T12:34:26.130Z,71.40
2022-10-05T12:37:04.401Z,71.41
2022-10-05T12:40:06.142Z,71.31
2022-10-05T12:42:54.647Z,71.03
2022-10-05T12:45:33.993Z,70.20
2022-10-05T12:48:08.288Z,70.76
2022-10-05T12:50:39.017Z,72.56
2022-10-05T12:53:23.809Z,71.90
2022-10-05T12:56:08.359Z,71.43
2022-10-05T12:59:05.671Z,71.50
2022-10-05T13:01:49.300Z,72.22
2022-10-05T13:04:26.714Z,72.16
2022-10-05T13:07:20.953Z,71.99
2022-10-05T13:10:08.800Z,71.18
2022-10-05T13:12:44.707Z,72.51
2022-10-05T13:15:18.937Z,72.54
2022-10-05T13:17:48.550Z,73.07
2022-10-05T13:20:21.594Z,71.80
2022-10-05T13:23:00.492Z,72.07
2022-10-05T13:25:32.637Z,72.01
2022-10-05T13:28:17.367Z,71.94
2022-10-05T13:30:52.024Z,69.89
2022-10-05T13:33:31.177Z,70.31
2022-10-05T13:36:42.513Z,69.73
2022-10-05T13:39:30.313Z,69.75
2022-10-05T13:42:05.877Z,68.80
2022-10-05T13:44:47.954Z,67.63
2022-10-05T13:47:23.478Z,67.43
2022-10-05T13:50:05.687Z,68.34
2022-10-05T13:52:53.767Z,67.64
2022-10-05T13:55:40.557Z,68.71
2022-10-05T13:58:44.606Z,65.99
2022-10-05T14:01:41.726Z,64.91
2022-10-05T14:04:50.793Z,65.50
2022-10-05T14:07:39.371Z,65.63
2022-10-05T14:10:14.339Z,63.68
2022-10-05T14:12:43.498Z,62.10
2022-10-05T14:15:38.478Z,62.80
2022-10-05T14:18:23.726Z,63.33
2022-10-05T14:21:05.674Z,61.97
2022-10-05T14:23:32.429Z,62.33
2022-10-05T14:25:59.619Z,62.60
2022-10-05T14:28:33.656Z,62.44
2022-10-05T14:31:03.465Z,63.65
2022-10-05T14:33:34.940Z,63.28
2022-10-05T14:36:02.516Z,62.86
2022-10-05T14:38:53.281Z,63.52
2022-10-05T14:41:27.663Z,64.00
2022-10-05T14:43:59.761Z,64.14
2022-10-05T14:46:32.734Z,65.54
2022-10-05T14:49:17.169Z,66.84
2022-10-05T14:51:44.027Z,67.26
2022-10-05T14:54:29.287Z,67.73
2022-10-05T14:57:25.124Z,68.77
2022-10-05T15:00:12.361Z,68.61
2022-10-05T15:03:03.578Z,69.26
2022-10-05T15:05:50.796Z,69.94
2022-10-05T15:08:20.255Z,69.48
2022-10-05T15:10:56.613Z,70.47
2022-10-05T15:13:32.869Z,69.26
2022-10-05T15:16:12.048Z,68.08
2022-10-05T15:18:49.074Z,68.89
2022-10-05T15:21:51.043Z,69.32
2022-10-05T15:24:26.391Z,68.38
2022-10-05T15:26:57.827Z,68.35
2022-10-05T15:29:32.943Z,68.96
2022-10-05T15:32:18.245Z,67.77
2022-10-05T15:35:27.067Z,68.54
2022-10-05T15:38:04.433Z,69.26
2022-10-05T15:40:42.429Z,68.98
2022-10-05T15:43:16.358Z,68.96
2022-10-05T15:46:01.628Z,70.59
2022-10-05T15:48:48.470Z,71.11
2022-10-05T15:51:30.779Z,71.26
2022-10-05T15:54:30.279Z,71.18
2022-10-05T15:57:02.010Z,71.07
2022-10-05T15:59:44.771Z,70.23
2022-10-05T16:02:19.682Z,70.38
2022-10-05T16:05:12.242Z,70.00
2022-10-05T16:08:04.889Z,70.93
2022-10-05T16:10:33.825Z,71.56
2022-10-05T16:13:14.287Z,71.71
2022-10-05T16:15:48.727Z,71.11
2022-10-05T16:18:32.170Z,71.33
2022-10-05T16:21:26.784Z,71.89
2022-10-05T16:23:53.233Z,72.03
2022-10-05T16:26:32.706Z,73.42
2022-10-05T16:29:37.203Z,73.65
2022-10-05T16:32:19.081Z,73.71
2022-10-05T16:35:07.835Z,74.28
2022-10-05T16:37:56.585Z,73.85
2022-10-05T16:40:41.591Z,74.59
2022-10-05T16:43:40.164Z,74.03
2022-10-05T16:46:14.821Z,73.60
2022-10-05T16:49:02.129Z,74.43
2022-10-05T16:51:59.235Z,74.86
2022-10-05T16:54:47.491Z,74.88
2022-10-05T16:57:38.958Z,75.34
2022-10-05T17:00:22.055Z,75.63
2022-10-05T17:03:18.351Z,76.15
2022-10-05T17:06:03.967Z,76.52
2022-10-05T17:08:52.351Z,76.67
2022-10-05T17:11:18.891Z,75.60
2022-10-05T17:14:08.393Z,76.64
2022-10-05T17:17:04.338Z,76.34
2022-10-05T17:19:55.845Z,75.84
2022-10-05T17:22:32.252Z,76.43
2022-10-05T17:25:11.496Z,76.12
2022-10-05T17:27:54.741Z,76.71
2022-10-05T17:30:27.111Z,76.75
2022-10-05T17:33:14.746Z,77.21
2022-10-05T17:35:56.769Z,76.99
2022-10-05T17:38:50.829Z,76.76
2022-10-05T17:41:24.556Z,76.65
2022-10-05T17:44:09.883Z,76.87
2022-10-05T17:46:38.906Z,77.21
2022-10-05T17:49:16.205Z,77.40
2022-10-05T17:52:01.435Z,77.59
2022-10-05T17:54:50.547Z,77.94
2022-10-05T17:57:25.267Z,78.14
2022-10-05T17:59:57.708Z,77.81
2022-10-05T18:02:36.959Z,77.75
2022-10-05T18:05:06.532Z,77.90
2022-10-05T18:07:37.673Z,78.12
2022-10-05T18:10:11.666Z,78.37
2022-10-05T18:12:44.966Z,78.39
2022-10-05T18:15:36.075Z,78.49
2022-10-05T18:18:38.583Z,77.77
2022-10-05T18:21:24.132Z,77.64
2022-10-05T18:23:58.482Z,77.74
2022-10-05T18:26:52.940Z,77.78
2022-10-05T18:29:46.013Z,77.95
2022-10-05T18:32:40.597Z,78.39
2022-10-05T18:35:21.332Z,78.84
2022-10-05T18:38:09.618Z,78.91
2022-10-05T18:40:54.816Z,78.83
2022-10-05T18:43:27.639Z,78.57
2022-10-05T18:46:23.634Z,78.22
2022-10-05T18:49:21.111Z,77.89
2022-10-05T18:52:04.007Z,77.20
2022-10-05T18:54:30.607Z,77.03
2022-10-05T18:56:59.535Z,77.46
2022-10-05T18:59:48.498Z,77.22
2022-10-05T19:02:20.221Z,77.53
2022-10-05T19:04:52.844Z,77.20
2022-10-05T19:07:26.001Z,76.39
2022-10-05T19:10:14.985Z,77.48
2022-10-05T19:13:26.224Z,77.75
2022-10-05T19:16:06.667Z,77.79
2022-10-05T19:18:51.409Z,77.10
2022-10-05T19:21:30.350Z,76.80
2022-10-05T19:24:05.218Z,77.06
2022-10-05T19:26:40.997Z,77.19
2022-10-05T19:29:27.194Z,77.82
2022-10-05T19:32:02.309Z,77.84
2022-10-05T19:34:34.871Z,76.97
2022-10-05T19:37:14.770Z,76.46
2022-10-05T19:39:44.814Z,77.37
2022-10-05T19:42:11.549Z,76.82
2022-10-05T19:44:54.429Z,76.94
2022-10-05T19:47:52.241Z,77.10
2022-10-05T19:50:31.627Z,77.63
2022-10-05T19:53:10.350Z,77.36
2022-10-05T19:55:41.739Z,77.16
2022-10-05T19:58:28.863Z,77.17
2022-10-05T20:00:58.835Z,77.53
2022-10-05T20:03:29.503Z,77.40
2022-10-05T20:06:05.126Z,77.27
2022-10-05T20:08:43.899Z,76.98
2022-10-05T20:11:10.758Z,76.24
2022-10-05T20:13:39.335Z,76.50
2022-10-05T20:16:35.445Z,76.29
2022-10-05T20:19:48.058Z,76.49
2022-10-05T20:22:34.970Z,76.67
2022-10-05T20:25:18.536Z,76.56
2022-10-05T20:27:51.094Z,76.29
2022-10-05T20:30:20.517Z,77.45
2022-10-05T20:32:48.720Z,77.31
2022-10-05T20:35:16.838Z,77.29
2022-10-05T20:37:43.650Z,77.42
2022-10-05T20:40:11.090Z,76.97
2022-10-05T20:42:40.041Z,77.12
2022-10-05T20:45:07.332Z,77.00
2022-10-05T20:50:37.600Z,77.07
2022-10-05T20:53:09.737Z,76.27
2022-10-05T20:55:38.595Z,76.68
2022-10-05T20:58:05.227Z,76.54
2022-10-05T21:00:51.851Z,76.70
2022-10-05T21:03:19.226Z,76.35
2022-10-05T21:05:46.930Z,77.18
2022-10-05T21:08:14.040Z,76.54
2022-10-05T21:10:40.840Z,77.35
2022-10-05T21:13:07.381Z,77.37
2022-10-05T21:15:33.949Z,76.31
2022-10-05T21:18:00.546Z,75.86
2022-10-05T21:20:27.102Z,75.75
2022-10-05T21:22:53.753Z,75.27
2022-10-05T21:25:20.210Z,75.97
2022-10-05T21:27:48.617Z,75.46
2022-10-05T21:30:15.461Z,75.67
2022-10-05T21:32:44.366Z,75.65
2022-10-05T21:35:11.432Z,74.82
2022-10-05T21:37:38.052Z,75.39
2022-10-05T21:40:05.113Z,75.29
2022-10-05T21:42:31.934Z,75.60
2022-10-05T21:44:58.473Z,75.58
2022-10-05T21:47:25.831Z,76.29
2022-10-05T21:49:52.532Z,76.16
2022-10-05T21:52:19.734Z,76.01
2022-10-05T21:54:46.875Z,75.73
2022-10-05T21:57:14.663Z,75.51
2022-10-05T21:59:42.545Z,75.54
2022-10-05T22:02:09.082Z,74.90
2022-10-05T22:04:35.574Z,74.68
2022-10-05T22:07:06.198Z,75.59
2022-10-05T22:09:32.765Z,75.93
2022-10-05T22:12:00.022Z,75.99
2022-10-05T22:14:28.297Z,75.97
2022-10-05T22:16:54.920Z,76.90
2022-10-05T22:19:21.592Z,76.28
2022-10-05T22:21:48.164Z,76.79
2022-10-05T22:24:14.678Z,77.00
2022-10-05T22:26:43.802Z,76.45
2022-10-05T22:29:10.543Z,75.79
2022-10-05T22:31:37.642Z,75.35
2022-10-05T22:34:04.307Z,75.38
2022-10-05T22:36:31.020Z,74.99
2022-10-05T22:38:57.595Z,75.51
2022-10-05T22:41:24.164Z,75.55
2022-10-05T22:43:51.958Z,76.23
2022-10-05T22:46:19.028Z,75.93
2022-10-05T22:48:45.719Z,75.49
2022-10-05T22:51:12.493Z,75.92
2022-10-05T22:53:39.160Z,75.94
2022-10-05T22:56:11.006Z,75.35
2022-10-05T22:58:38.290Z,75.74
2022-10-05T23:01:08.145Z,75.98
2022-10-05T23:03:35.414Z,75.04
2022-10-05T23:06:06.100Z,74.74
2022-10-05T23:08:34.127Z,75.48
2022-10-05T23:11:03.306Z,76.06
2022-10-05T23:13:30.440Z,75.25
2022-10-05T23:15:57.418Z,75.16
2022-10-05T23:18:24.082Z,75.73
2022-10-05T23:20:55.377Z,76.01
2022-10-05T23:23:23.306Z,74.85
2022-10-05T23:25:50.005Z,74.65
2022-10-05T23:28:16.670Z,75.30
2022-10-05T23:30:44.160Z,75.53
2022-10-05T23:33:10.922Z,75.96
2022-10-05T23:35:37.520Z,75.26
2022-10-05T23:38:04.667Z,75.70
2022-10-05T23:40:31.172Z,75.42
2022-10-05T23:42:58.478Z,75.87
2022-10-05T23:45:25.107Z,75.35
2022-10-05T23:47:51.652Z,75.26
2022-10-05T23:50:18.418Z,75.19
2022-10-05T23:52:44.982Z,75.29
2022-10-05T23:55:11.506Z,75.35
2022-10-05T23:57:39.155Z,74.73
